sensor_id;sensor_type;location;lat;lon;timestamp;P1;durP1;ratioP1;P2;durP2;ratioP2
16266;SDS011;8241;48.786;9.250;2022-09-09T11:33:04;2.50;;;2.40;;
16266;SDS011;8241;48.786;9.250;2022-09-09T11:36:16;2.30;;;2.20;;
16266;SDS011;8241;48.786;9.250;2022-09-09T11:39:16;2.30;;;2.20;;
16266;SDS011;8241;48.786;9.250;2022-09-09T11:42:05;1.90;;;1.90;;
16266;SDS011;8241;48.786;9.250;2022-09-09T11:44:33;1.90;;;1.90;;
16266;SDS011;8241;48.786;9.250;2022-09-09T11:47:16;1.80;;;1.80;;
16266;SDS011;8241;48.786;9.250;2022-09-09T11:49:52;1.90;;;1.90;;
16266;SDS011;8241;48.786;9.250;2022-09-09T11:58:39;2.87;;;2.67;;
16266;SDS011;8241;48.786;9.250;2022-09-09T12:01:13;1.60;;;1.60;;
16266;SDS011;8241;48.786;9.250;2022-09-09T12:03:47;1.55;;;1.55;;
16266;SDS011;8241;48.786;9.250;2022-09-09T12:06:25;1.77;;;1.67;;
16266;SDS011;8241;48.786;9.250;2022-09-09T12:09:05;1.50;;;1.50;;
16266;SDS011;8241;48.786;9.250;2022-09-09T12:11:39;1.70;;;1.70;;
16266;SDS011;8241;48.786;9.250;2022-09-09T12:14:18;2.70;;;2.00;;
16266;SDS011;8241;48.786;9.250;2022-09-09T12:16:50;2.03;;;1.98;;
16266;SDS011;8241;48.786;9.250;2022-09-09T12:19:29;2.30;;;2.20;;
16266;SDS011;8241;48.786;9.250;2022-09-09T12:22:03;16.40;;;2.80;;
16266;SDS011;8241;48.786;9.250;2022-09-09T12:24:40;2.40;;;2.30;;
16266;SDS011;8241;48.786;9.250;2022-09-09T12:27:14;2.20;;;2.10;;
16266;SDS011;8241;48.786;9.250;2022-09-09T12:29:52;2.10;;;2.10;;
16266;SDS011;8241;48.786;9.250;2022-09-09T12:32:26;2.20;;;2.10;;
16266;SDS011;8241;48.786;9.250;2022-09-09T12:37:46;2.35;;;2.25;;
16266;SDS011;8241;48.786;9.250;2022-09-09T12:40:22;2.97;;;2.78;;
16266;SDS011;8241;48.786;9.250;2022-09-09T12:42:50;2.30;;;2.20;;
16266;SDS011;8241;48.786;9.250;2022-09-09T12:45:18;2.38;;;2.28;;
16266;SDS011;8241;48.786;9.250;2022-09-09T12:47:51;3.20;;;3.00;;
16266;SDS011;8241;48.786;9.250;2022-09-09T12:53:09;2.42;;;2.33;;
16266;SDS011;8241;48.786;9.250;2022-09-09T12:55:48;2.67;;;2.47;;
16266;SDS011;8241;48.786;9.250;2022-09-09T12:58:20;2.45;;;2.35;;
16266;SDS011;8241;48.786;9.250;2022-09-09T13:00:55;2.40;;;2.30;;
16266;SDS011;8241;48.786;9.250;2022-09-09T13:03:30;2.40;;;2.30;;
16266;SDS011;8241;48.786;9.250;2022-09-09T13:06:11;2.20;;;2.10;;
16266;SDS011;8241;48.786;9.250;2022-09-09T13:08:44;2.10;;;2.10;;
16266;SDS011;8241;48.786;9.250;2022-09-09T13:11:12;2.80;;;2.50;;
16266;SDS011;8241;48.786;9.250;2022-09-09T13:16:35;3.00;;;2.80;;
16266;SDS011;8241;48.786;9.250;2022-09-09T13:19:06;2.10;;;2.10;;
16266;SDS011;8241;48.786;9.250;2022-09-09T13:21:38;2.13;;;2.10;;
16266;SDS011;8241;48.786;9.250;2022-09-09T13:29:50;2.27;;;2.17;;
16266;SDS011;8241;48.786;9.250;2022-09-09T13:32:35;3.13;;;2.25;;
16266;SDS011;8241;48.786;9.250;2022-09-09T13:35:03;1.90;;;1.90;;
16266;SDS011;8241;48.786;9.250;2022-09-09T13:37:48;2.17;;;2.08;;
16266;SDS011;8241;48.786;9.250;2022-09-09T13:40:16;2.05;;;2.00;;
16266;SDS011;8241;48.786;9.250;2022-09-09T13:42:46;2.25;;;2.15;;
16266;SDS011;8241;48.786;9.250;2022-09-09T13:48:10;2.47;;;2.38;;
16266;SDS011;8241;48.786;9.250;2022-09-09T13:50:53;2.70;;;2.60;;
16266;SDS011;8241;48.786;9.250;2022-09-09T13:53:37;2.67;;;2.58;;
16266;SDS011;8241;48.786;9.250;2022-09-09T13:56:19;2.72;;;2.63;;
16266;SDS011;8241;48.786;9.250;2022-09-09T13:58:51;2.42;;;2.33;;
16266;SDS011;8241;48.786;9.250;2022-09-09T14:01:28;2.37;;;2.27;;
16266;SDS011;8241;48.786;9.250;2022-09-09T14:03:57;2.40;;;2.30;;
16266;SDS011;8241;48.786;9.250;2022-09-09T14:06:30;2.45;;;2.35;;
16266;SDS011;8241;48.786;9.250;2022-09-09T14:09:00;2.40;;;2.25;;
16266;SDS011;8241;48.786;9.250;2022-09-09T14:11:28;2.30;;;2.20;;
16266;SDS011;8241;48.786;9.250;2022-09-09T14:13:56;2.50;;;2.40;;
16266;SDS011;8241;48.786;9.250;2022-09-09T14:16:37;2.10;;;2.10;;
16266;SDS011;8241;48.786;9.250;2022-09-09T14:19:09;2.30;;;2.20;;
16266;SDS011;8241;48.786;9.250;2022-09-09T14:21:37;2.33;;;2.22;;
16266;SDS011;8241;48.786;9.250;2022-09-09T14:27:18;2.20;;;2.10;;
16266;SDS011;8241;48.786;9.250;2022-09-09T14:32:41;2.25;;;2.15;;
16266;SDS011;8241;48.786;9.250;2022-09-09T14:35:15;3.50;;;2.80;;
16266;SDS011;8241;48.786;9.250;2022-09-09T14:40:47;2.50;;;2.40;;
16266;SDS011;8241;48.786;9.250;2022-09-09T14:46:14;3.30;;;2.47;;
16266;SDS011;8241;48.786;9.250;2022-09-09T14:51:30;2.50;;;2.40;;
16266;SDS011;8241;48.786;9.250;2022-09-09T14:56:54;2.78;;;2.67;;
16266;SDS011;8241;48.786;9.250;2022-09-09T15:02:19;2.70;;;2.60;;
16266;SDS011;8241;48.786;9.250;2022-09-09T15:04:49;2.38;;;2.28;;
16266;SDS011;8241;48.786;9.250;2022-09-09T15:07:16;4.60;;;2.60;;
16266;SDS011;8241;48.786;9.250;2022-09-09T15:12:18;2.40;;;2.30;;
16266;SDS011;8241;48.786;9.250;2022-09-09T15:15:01;2.60;;;2.50;;
16266;SDS011;8241;48.786;9.250;2022-09-09T15:17:41;2.40;;;2.30;;
16266;SDS011;8241;48.786;9.250;2022-09-09T15:20:08;3.03;;;2.83;;
16266;SDS011;8241;48.786;9.250;2022-09-09T15:22:35;2.80;;;2.60;;
16266;SDS011;8241;48.786;9.250;2022-09-09T15:28:02;2.67;;;2.57;;
16266;SDS011;8241;48.786;9.250;2022-09-09T15:30:31;2.73;;;2.57;;
16266;SDS011;8241;48.786;9.250;2022-09-09T15:32:58;2.60;;;2.50;;
16266;SDS011;8241;48.786;9.250;2022-09-09T15:35:24;2.50;;;2.40;;
16266;SDS011;8241;48.786;9.250;2022-09-09T15:37:52;2.10;;;2.05;;
16266;SDS011;8241;48.786;9.250;2022-09-09T15:40:26;2.45;;;2.35;;
16266;SDS011;8241;48.786;9.250;2022-09-09T15:42:56;2.30;;;2.20;;
16266;SDS011;8241;48.786;9.250;2022-09-09T15:51:11;2.55;;;2.45;;
16266;SDS011;8241;48.786;9.250;2022-09-09T15:53:39;2.70;;;2.60;;
16266;SDS011;8241;48.786;9.250;2022-09-09T15:56:17;1.90;;;1.90;;
16266;SDS011;8241;48.786;9.250;2022-09-09T16:01:41;2.20;;;2.10;;
16266;SDS011;8241;48.786;9.250;2022-09-09T16:04:18;2.22;;;2.17;;
16266;SDS011;8241;48.786;9.250;2022-09-09T16:06:57;2.40;;;2.30;;
16266;SDS011;8241;48.786;9.250;2022-09-09T16:09:25;2.58;;;2.47;;
16266;SDS011;8241;48.786;9.250;2022-09-09T16:11:55;2.70;;;2.60;;
16266;SDS011;8241;48.786;9.250;2022-09-09T16:14:27;3.03;;;2.75;;
16266;SDS011;8241;48.786;9.250;2022-09-09T16:17:09;2.10;;;2.10;;
16266;SDS011;8241;48.786;9.250;2022-09-09T16:22:33;2.40;;;2.30;;
16266;SDS011;8241;48.786;9.250;2022-09-09T16:25:15;2.65;;;2.55;;
16266;SDS011;8241;48.786;9.250;2022-09-09T16:27:43;2.33;;;2.22;;
16266;SDS011;8241;48.786;9.250;2022-09-09T16:30:10;2.45;;;2.35;;
16266;SDS011;8241;48.786;9.250;2022-09-09T16:32:38;14.10;;;2.70;;
16266;SDS011;8241;48.786;9.250;2022-09-09T16:35:07;2.00;;;2.00;;
16266;SDS011;8241;48.786;9.250;2022-09-09T16:37:45;1.80;;;1.80;;
16266;SDS011;8241;48.786;9.250;2022-09-09T16:40:13;1.80;;;1.80;;
16266;SDS011;8241;48.786;9.250;2022-09-09T16:45:59;2.20;;;2.10;;
16266;SDS011;8241;48.786;9.250;2022-09-09T16:48:30;2.40;;;2.30;;
16266;SDS011;8241;48.786;9.250;2022-09-09T16:51:04;2.20;;;2.10;;
16266;SDS011;8241;48.786;9.250;2022-09-09T16:53:46;1.95;;;1.95;;
16266;SDS011;8241;48.786;9.250;2022-09-09T16:56:15;1.80;;;1.80;;
16266;SDS011;8241;48.786;9.250;2022-09-09T16:58:50;1.67;;;1.67;;
16266;SDS011;8241;48.786;9.250;2022-09-09T17:01:34;1.70;;;1.70;;
16266;SDS011;8241;48.786;9.250;2022-09-09T17:04:17;1.90;;;1.90;;
16266;SDS011;8241;48.786;9.250;2022-09-09T17:06:54;1.90;;;1.90;;
16266;SDS011;8241;48.786;9.250;2022-09-09T17:12:19;1.70;;;1.70;;
16266;SDS011;8241;48.786;9.250;2022-09-09T17:14:47;1.70;;;1.70;;
16266;SDS011;8241;48.786;9.250;2022-09-09T17:17:18;1.60;;;1.60;;
16266;SDS011;8241;48.786;9.250;2022-09-09T17:19:47;1.47;;;1.47;;
16266;SDS011;8241;48.786;9.250;2022-09-09T17:22:16;1.50;;;1.50;;
16266;SDS011;8241;48.786;9.250;2022-09-09T17:24:45;1.63;;;1.63;;
16266;SDS011;8241;48.786;9.250;2022-09-09T17:27:11;1.60;;;1.60;;
16266;SDS011;8241;48.786;9.250;2022-09-09T17:29:39;1.60;;;1.60;;
16266;SDS011;8241;48.786;9.250;2022-09-09T17:32:06;1.50;;;1.50;;
16266;SDS011;8241;48.786;9.250;2022-09-09T17:34:33;1.70;;;1.70;;
16266;SDS011;8241;48.786;9.250;2022-09-09T17:37:00;1.60;;;1.60;;
16266;SDS011;8241;48.786;9.250;2022-09-09T17:39:28;1.70;;;1.70;;
16266;SDS011;8241;48.786;9.250;2022-09-09T17:41:55;1.67;;;1.67;;
16266;SDS011;8241;48.786;9.250;2022-09-09T17:44:22;1.57;;;1.57;;
16266;SDS011;8241;48.786;9.250;2022-09-09T17:46:49;1.67;;;1.67;;
16266;SDS011;8241;48.786;9.250;2022-09-09T17:49:16;1.83;;;1.83;;
16266;SDS011;8241;48.786;9.250;2022-09-09T17:51:44;1.80;;;1.80;;
16266;SDS011;8241;48.786;9.250;2022-09-09T17:54:12;1.90;;;1.90;;
16266;SDS011;8241;48.786;9.250;2022-09-09T17:56:41;1.70;;;1.70;;
16266;SDS011;8241;48.786;9.250;2022-09-09T17:59:09;1.70;;;1.70;;
16266;SDS011;8241;48.786;9.250;2022-09-09T18:01:39;1.87;;;1.77;;
16266;SDS011;8241;48.786;9.250;2022-09-09T18:04:11;2.33;;;2.23;;
16266;SDS011;8241;48.786;9.250;2022-09-09T18:06:41;1.73;;;1.73;;
16266;SDS011;8241;48.786;9.250;2022-09-09T18:09:13;1.70;;;1.70;;
16266;SDS011;8241;48.786;9.250;2022-09-09T18:11:44;1.63;;;1.63;;
16266;SDS011;8241;48.786;9.250;2022-09-09T18:14:15;2.70;;;2.53;;
16266;SDS011;8241;48.786;9.250;2022-09-09T18:16:46;2.17;;;2.07;;
16266;SDS011;8241;48.786;9.250;2022-09-09T18:19:16;4.00;;;2.37;;
16266;SDS011;8241;48.786;9.250;2022-09-09T18:21:45;1.50;;;1.50;;
16266;SDS011;8241;48.786;9.250;2022-09-09T18:24:22;1.70;;;1.70;;
16266;SDS011;8241;48.786;9.250;2022-09-09T18:26:50;1.80;;;1.80;;
16266;SDS011;8241;48.786;9.250;2022-09-09T18:29:18;1.70;;;1.70;;
16266;SDS011;8241;48.786;9.250;2022-09-09T18:31:51;1.67;;;1.67;;
16266;SDS011;8241;48.786;9.250;2022-09-09T18:34:21;1.97;;;1.87;;
16266;SDS011;8241;48.786;9.250;2022-09-09T18:37:09;1.60;;;1.60;;
16266;SDS011;8241;48.786;9.250;2022-09-09T18:39:37;1.60;;;1.60;;
16266;SDS011;8241;48.786;9.250;2022-09-09T18:42:18;1.80;;;1.80;;
16266;SDS011;8241;48.786;9.250;2022-09-09T18:44:59;1.70;;;1.70;;
16266;SDS011;8241;48.786;9.250;2022-09-09T18:47:26;1.60;;;1.60;;
16266;SDS011;8241;48.786;9.250;2022-09-09T18:49:53;1.80;;;1.80;;
16266;SDS011;8241;48.786;9.250;2022-09-09T18:52:22;1.80;;;1.80;;
16266;SDS011;8241;48.786;9.250;2022-09-09T18:54:49;1.70;;;1.70;;
16266;SDS011;8241;48.786;9.250;2022-09-09T18:57:18;1.70;;;1.70;;
16266;SDS011;8241;48.786;9.250;2022-09-09T18:59:45;1.67;;;1.63;;
16266;SDS011;8241;48.786;9.250;2022-09-09T19:02:19;1.70;;;1.70;;
16266;SDS011;8241;48.786;9.250;2022-09-09T19:04:46;1.60;;;1.60;;
16266;SDS011;8241;48.786;9.250;2022-09-09T19:07:15;1.60;;;1.60;;
16266;SDS011;8241;48.786;9.250;2022-09-09T19:09:42;1.80;;;1.80;;
16266;SDS011;8241;48.786;9.250;2022-09-09T19:12:10;1.90;;;1.90;;
16266;SDS011;8241;48.786;9.250;2022-09-09T19:14:38;1.87;;;1.87;;
16266;SDS011;8241;48.786;9.250;2022-09-09T19:17:09;2.40;;;2.30;;
16266;SDS011;8241;48.786;9.250;2022-09-09T19:19:37;1.70;;;1.70;;
16266;SDS011;8241;48.786;9.250;2022-09-09T19:22:16;3.23;;;2.20;;
16266;SDS011;8241;48.786;9.250;2022-09-09T19:24:58;1.80;;;1.80;;
16266;SDS011;8241;48.786;9.250;2022-09-09T19:27:29;1.80;;;1.80;;
16266;SDS011;8241;48.786;9.250;2022-09-09T19:30:06;1.70;;;1.70;;
16266;SDS011;8241;48.786;9.250;2022-09-09T19:32:35;1.70;;;1.70;;
16266;SDS011;8241;48.786;9.250;2022-09-09T19:35:03;1.70;;;1.70;;
16266;SDS011;8241;48.786;9.250;2022-09-09T19:37:31;1.67;;;1.67;;
16266;SDS011;8241;48.786;9.250;2022-09-09T19:39:58;1.83;;;1.83;;
16266;SDS011;8241;48.786;9.250;2022-09-09T19:42:25;1.77;;;1.77;;
16266;SDS011;8241;48.786;9.250;2022-09-09T19:44:54;1.80;;;1.80;;
16266;SDS011;8241;48.786;9.250;2022-09-09T19:50:34;1.60;;;1.60;;
16266;SDS011;8241;48.786;9.250;2022-09-09T19:53:02;1.60;;;1.60;;
16266;SDS011;8241;48.786;9.250;2022-09-09T19:55:29;2.00;;;2.00;;
16266;SDS011;8241;48.786;9.250;2022-09-09T19:57:56;1.98;;;1.95;;
16266;SDS011;8241;48.786;9.250;2022-09-09T20:00:23;1.93;;;1.93;;
16266;SDS011;8241;48.786;9.250;2022-09-09T20:02:50;1.70;;;1.70;;
16266;SDS011;8241;48.786;9.250;2022-09-09T20:05:17;1.80;;;1.80;;
16266;SDS011;8241;48.786;9.250;2022-09-09T20:07:45;1.90;;;1.80;;
16266;SDS011;8241;48.786;9.250;2022-09-09T20:10:12;1.70;;;1.70;;
16266;SDS011;8241;48.786;9.250;2022-09-09T20:12:39;1.90;;;1.90;;
16266;SDS011;8241;48.786;9.250;2022-09-09T20:15:07;2.03;;;2.00;;
16266;SDS011;8241;48.786;9.250;2022-09-09T20:17:34;2.20;;;2.10;;
16266;SDS011;8241;48.786;9.250;2022-09-09T20:20:01;2.33;;;2.22;;
16266;SDS011;8241;48.786;9.250;2022-09-09T20:22:29;2.00;;;2.00;;
16266;SDS011;8241;48.786;9.250;2022-09-09T20:24:57;1.73;;;1.73;;
16266;SDS011;8241;48.786;9.250;2022-09-09T20:27:25;2.10;;;2.00;;
16266;SDS011;8241;48.786;9.250;2022-09-09T20:29:52;2.10;;;2.00;;
16266;SDS011;8241;48.786;9.250;2022-09-09T20:32:19;2.03;;;2.03;;
16266;SDS011;8241;48.786;9.250;2022-09-09T20:34:48;2.20;;;2.10;;
16266;SDS011;8241;48.786;9.250;2022-09-09T20:37:15;2.10;;;2.00;;
16266;SDS011;8241;48.786;9.250;2022-09-09T20:39:42;1.90;;;1.90;;
16266;SDS011;8241;48.786;9.250;2022-09-09T20:42:11;2.30;;;2.20;;
16266;SDS011;8241;48.786;9.250;2022-09-09T20:44:38;2.47;;;2.38;;
16266;SDS011;8241;48.786;9.250;2022-09-09T20:47:05;2.20;;;2.10;;
16266;SDS011;8241;48.786;9.250;2022-09-09T20:49:33;2.00;;;2.00;;
16266;SDS011;8241;48.786;9.250;2022-09-09T20:52:00;2.10;;;2.00;;
16266;SDS011;8241;48.786;9.250;2022-09-09T20:54:27;2.10;;;2.10;;
16266;SDS011;8241;48.786;9.250;2022-09-09T20:56:55;2.20;;;2.10;;
16266;SDS011;8241;48.786;9.250;2022-09-09T20:59:26;1.90;;;1.90;;
16266;SDS011;8241;48.786;9.250;2022-09-09T21:01:54;2.10;;;2.10;;
16266;SDS011;8241;48.786;9.250;2022-09-09T21:04:22;2.50;;;2.40;;
16266;SDS011;8241;48.786;9.250;2022-09-09T21:06:50;2.30;;;2.20;;
16266;SDS011;8241;48.786;9.250;2022-09-09T21:09:17;2.20;;;2.10;;
16266;SDS011;8241;48.786;9.250;2022-09-09T21:11:46;2.30;;;2.20;;
16266;SDS011;8241;48.786;9.250;2022-09-09T21:14:13;2.08;;;2.03;;
16266;SDS011;8241;48.786;9.250;2022-09-09T21:16:41;2.38;;;2.28;;
16266;SDS011;8241;48.786;9.250;2022-09-09T21:19:10;2.30;;;2.20;;
16266;SDS011;8241;48.786;9.250;2022-09-09T21:24:14;2.00;;;2.00;;
16266;SDS011;8241;48.786;9.250;2022-09-09T21:26:41;2.17;;;2.07;;
16266;SDS011;8241;48.786;9.250;2022-09-09T21:29:08;2.20;;;2.10;;
16266;SDS011;8241;48.786;9.250;2022-09-09T21:31:38;2.05;;;2.03;;
16266;SDS011;8241;48.786;9.250;2022-09-09T21:34:06;2.25;;;2.15;;
16266;SDS011;8241;48.786;9.250;2022-09-09T21:36:34;2.20;;;2.10;;
16266;SDS011;8241;48.786;9.250;2022-09-09T21:39:13;2.17;;;2.08;;
16266;SDS011;8241;48.786;9.250;2022-09-09T21:41:57;2.08;;;2.03;;
16266;SDS011;8241;48.786;9.250;2022-09-09T21:44:38;2.40;;;2.30;;
16266;SDS011;8241;48.786;9.250;2022-09-09T21:47:16;1.90;;;1.90;;
16266;SDS011;8241;48.786;9.250;2022-09-09T21:49:45;2.15;;;2.05;;
16266;SDS011;8241;48.786;9.250;2022-09-09T21:52:13;1.90;;;1.90;;
16266;SDS011;8241;48.786;9.250;2022-09-09T21:54:41;2.20;;;2.10;;
16266;SDS011;8241;48.786;9.250;2022-09-09T21:57:10;1.80;;;1.80;;
16266;SDS011;8241;48.786;9.250;2022-09-09T21:59:38;1.90;;;1.90;;
16266;SDS011;8241;48.786;9.250;2022-09-09T22:04:47;2.00;;;2.00;;
16266;SDS011;8241;48.786;9.250;2022-09-09T22:07:18;11.40;;;2.70;;
16266;SDS011;8241;48.786;9.250;2022-09-09T22:09:57;2.13;;;2.05;;
16266;SDS011;8241;48.786;9.250;2022-09-09T22:12:35;1.90;;;1.90;;
16266;SDS011;8241;48.786;9.250;2022-09-09T22:15:03;1.95;;;1.90;;
16266;SDS011;8241;48.786;9.250;2022-09-09T22:17:32;1.83;;;1.83;;
16266;SDS011;8241;48.786;9.250;2022-09-09T22:20:05;2.05;;;1.95;;
16266;SDS011;8241;48.786;9.250;2022-09-09T22:22:35;1.90;;;1.90;;
16266;SDS011;8241;48.786;9.250;2022-09-09T22:25:07;1.80;;;1.80;;
16266;SDS011;8241;48.786;9.250;2022-09-09T22:27:39;1.80;;;1.80;;
16266;SDS011;8241;48.786;9.250;2022-09-09T22:30:14;2.20;;;2.10;;
16266;SDS011;8241;48.786;9.250;2022-09-09T22:32:46;1.90;;;1.90;;
16266;SDS011;8241;48.786;9.250;2022-09-09T22:35:16;1.90;;;1.90;;
16266;SDS011;8241;48.786;9.250;2022-09-09T22:37:57;1.80;;;1.80;;
16266;SDS011;8241;48.786;9.250;2022-09-09T22:40:24;1.80;;;1.80;;
16266;SDS011;8241;48.786;9.250;2022-09-09T22:42:52;2.00;;;1.90;;
16266;SDS011;8241;48.786;9.250;2022-09-09T22:45:29;2.00;;;1.90;;
16266;SDS011;8241;48.786;9.250;2022-09-09T22:47:57;2.20;;;2.10;;
16266;SDS011;8241;48.786;9.250;2022-09-09T22:50:27;1.85;;;1.83;;
16266;SDS011;8241;48.786;9.250;2022-09-09T22:52:55;1.80;;;1.80;;
16266;SDS011;8241;48.786;9.250;2022-09-09T23:01:06;1.80;;;1.80;;
16266;SDS011;8241;48.786;9.250;2022-09-09T23:03:41;1.80;;;1.80;;
16266;SDS011;8241;48.786;9.250;2022-09-09T23:06:12;1.90;;;1.80;;
16266;SDS011;8241;48.786;9.250;2022-09-09T23:08:42;1.60;;;1.60;;
16266;SDS011;8241;48.786;9.250;2022-09-09T23:11:10;1.70;;;1.70;;
16266;SDS011;8241;48.786;9.250;2022-09-09T23:13:39;1.80;;;1.80;;
16266;SDS011;8241;48.786;9.250;2022-09-09T23:18:42;1.90;;;1.80;;
16266;SDS011;8241;48.786;9.250;2022-09-09T23:21:15;1.60;;;1.60;;
16266;SDS011;8241;48.786;9.250;2022-09-09T23:23:45;2.90;;;2.20;;
16266;SDS011;8241;48.786;9.250;2022-09-09T23:28:59;1.67;;;1.67;;
16266;SDS011;8241;48.786;9.250;2022-09-09T23:31:27;1.63;;;1.63;;
16266;SDS011;8241;48.786;9.250;2022-09-09T23:34:08;1.75;;;1.75;;
16266;SDS011;8241;48.786;9.250;2022-09-09T23:36:36;1.40;;;1.40;;
16266;SDS011;8241;48.786;9.250;2022-09-09T23:39:05;1.50;;;1.50;;
16266;SDS011;8241;48.786;9.250;2022-09-09T23:41:34;1.50;;;1.50;;
16266;SDS011;8241;48.786;9.250;2022-09-09T23:44:02;1.50;;;1.50;;
16266;SDS011;8241;48.786;9.250;2022-09-09T23:46:35;1.60;;;1.60;;
16266;SDS011;8241;48.786;9.250;2022-09-09T23:49:01;1.50;;;1.50;;
16266;SDS011;8241;48.786;9.250;2022-09-09T23:51:32;1.77;;;1.77;;
16266;SDS011;8241;48.786;9.250;2022-09-09T23:54:14;1.60;;;1.60;;
16266;SDS011;8241;48.786;9.250;2022-09-09T23:56:44;1.40;;;1.40;;
16266;SDS011;8241;48.786;9.250;2022-09-09T23:59:11;1.40;;;1.40;;
